KEVB/EVB METAR and TAF weather

Enter ICAO airport designator
Station Type Date Time Source
KEVB METAR 2022/01/29 02:47 UTC NOAA

KEVB 290247Z 31007KT 10SM FEW043 BKN060 13/08 A2994 RMK LAST


Station Type Date Time Source
KEVB Decoded METAR 2022/01/29 02:47 UTC NOAA

New Smyrna Beach, New Smyrna Beach Municipal Airport, FL, United States (KEVB) 29-03-20N 080-56-54W
Jan 28, 2022 - 09:47 PM EST / 2022.01.29 0247 UTC
Wind: from the NW (310 degrees) at 8 MPH (7 KT):0
Visibility: 10 mile(s):0
Sky conditions: mostly cloudy
Temperature: 55 F (13 C)
Dew Point: 46 F (8 C)
Relative Humidity: 71%
Pressure (altimeter): 29.94 in. Hg (1013 hPa)
ob: KEVB 290247Z 31007KT 10SM FEW043 BKN060 13/08 A2994 RMK LAST
cycle: 3

Station Type Date Time Source
KEVB TAF UTC NOAA

Error!

Example: see airport list